Time;durP1;ratioP1;P1;durP2;ratioP2;P2;SDS_P1;SDS_P2;PMS_P1;PMS_P2;Temp;Humidity;BMP_temperature;BMP_pressure;BME280_temperature;BME280_humidity;BME280_pressure;Samples;Min_cycle;Max_cycle;Signal;HPM_P1;HPM_P2
2023/06/23 00:00:11;;;;;;;22.52;9.50;;;;;;;21.23;nan;100469.22;5071633;28;20115;-73
2023/06/23 00:02:37;;;;;;;18.52;9.25;;;;;;;21.18;nan;100471.19;5071937;28;20511;-72
2023/06/23 00:05:03;;;;;;;17.20;9.85;;;;;;;21.08;nan;100466.81;5068919;28;20622;-73
2023/06/23 00:07:29;;;;;;;18.58;10.00;;;;;;;20.94;nan;100479.38;5070141;28;20032;-72
2023/06/23 00:09:54;;;;;;;22.10;10.25;;;;;;;20.87;nan;100466.34;5070772;28;20027;-72
2023/06/23 00:12:20;;;;;;;21.90;9.85;;;;;;;20.82;nan;100451.16;5052193;28;20025;-72
2023/06/23 00:14:45;;;;;;;21.65;10.60;;;;;;;20.75;nan;100460.66;5052660;28;20062;-72
2023/06/23 00:17:11;;;;;;;19.10;10.40;;;;;;;20.77;nan;100467.31;5050580;28;20051;-73
2023/06/23 00:19:36;;;;;;;27.67;11.15;;;;;;;20.74;nan;100448.38;5069155;28;20081;-72
2023/06/23 00:22:03;;;;;;;29.00;11.15;;;;;;;20.75;nan;100464.13;5069868;28;20113;-73
2023/06/23 00:24:30;;;;;;;19.45;10.32;;;;;;;;;;5070516;28;20493;-72
2023/06/23 00:26:56;;;;;;;33.30;10.45;;;;;;;20.64;nan;100448.50;5052595;28;20581;-73
2023/06/23 00:29:21;;;;;;;26.08;11.30;;;;;;;20.60;nan;100502.59;5070094;28;20070;-72
2023/06/23 00:31:47;;;;;;;30.35;10.38;;;;;;;20.56;nan;100471.38;5052360;28;20706;-72
2023/06/23 00:34:12;;;;;;;26.70;10.82;;;;;;;20.60;nan;100454.44;5068432;28;20024;-73
2023/06/23 00:36:38;;;;;;;22.13;10.07;;;;;;;20.56;nan;100407.94;5069640;28;20031;-72
2023/06/23 00:39:03;;;;;;;28.17;11.02;;;;;;;20.62;nan;100454.16;5070402;28;20017;-72
2023/06/23 00:41:28;;;;;;;26.25;10.55;;;;;;;20.62;nan;100415.91;5071188;28;20025;-72
2023/06/23 00:43:59;;;;;;;21.42;10.02;;;;;;;20.68;nan;100455.66;5070986;28;20077;-72
2023/06/23 00:46:26;;;;;;;23.48;10.45;;;;;;;20.67;nan;100455.97;5070181;28;20033;-72
2023/06/23 00:48:52;;;;;;;23.45;10.52;;;;;;;20.68;nan;100524.44;5051620;28;20027;-73
2023/06/23 00:51:17;;;;;;;25.75;10.65;;;;;;;20.65;nan;100444.75;5051685;28;20024;-74
2023/06/23 00:53:47;;;;;;;25.55;10.68;;;;;;;20.67;nan;100430.00;5067741;28;20026;-72
2023/06/23 00:56:18;;;;;;;20.15;10.60;;;;;;;20.63;nan;100458.41;5050580;28;20512;-74
2023/06/23 00:58:45;;;;;;;25.77;9.98;;;;;;;20.56;nan;100421.31;5066056;28;20028;-73
2023/06/23 01:01:10;;;;;;;19.10;10.32;;;;;;;20.50;nan;100451.13;5046875;28;20048;-73
2023/06/23 01:03:36;;;;;;;18.15;10.50;;;;;;;20.45;nan;100451.16;5065909;28;20146;-74
2023/06/23 01:06:20;;;;;;;29.55;10.75;;;;;;;20.33;nan;100489.84;5049653;28;20029;-74
2023/06/23 01:08:56;;;;;;;28.17;10.55;;;;;;;20.35;nan;100446.75;5042210;28;20542;-73
2023/06/23 01:11:28;;;;;;;23.38;10.98;;;;;;;20.28;nan;100491.78;5049107;28;20082;-73
2023/06/23 01:13:56;;;;;;;21.33;10.15;;;;;;;20.29;nan;100453.28;5047512;28;20035;-73
2023/06/23 01:16:37;;;;;;;30.43;11.67;;;;;;;20.26;nan;100432.47;5065462;28;20024;-73
2023/06/23 01:19:34;;;;;;;33.35;11.05;;;;;;;20.31;nan;100443.09;5066228;28;20029;-73
2023/06/23 01:22:10;;;;;;;21.05;10.52;;;;;;;20.26;nan;100419.09;5057206;28;20031;-72
2023/06/23 01:24:48;;;;;;;26.45;11.32;;;;;;;20.19;nan;100432.81;5047067;28;20028;-74
2023/06/23 01:27:40;;;;;;;28.38;12.13;;;;;;;20.10;nan;100384.53;5048191;28;20032;-74
2023/06/23 01:30:13;;;;;;;29.50;11.82;;;;;;;20.07;nan;100413.72;5063163;28;20028;-73
2023/06/23 01:32:48;;;;;;;22.17;11.52;;;;;;;20.08;nan;100434.03;5061043;28;20068;-73
2023/06/23 01:35:24;;;;;;;19.92;11.02;;;;;;;20.02;nan;100435.97;5046521;28;20455;-73
2023/06/23 01:37:53;;;;;;;29.05;11.88;;;;;;;19.98;nan;100454.44;5066818;28;20035;-72
2023/06/23 01:40:22;;;;;;;25.23;12.38;;;;;;;20.00;nan;100426.66;5066792;28;20119;-73
2023/06/23 01:42:57;;;;;;;25.15;12.27;;;;;;;19.91;nan;100434.50;5048479;28;20032;-73
2023/06/23 01:45:25;;;;;;;23.30;11.82;;;;;;;19.88;nan;100411.03;5065758;28;20037;-74
2023/06/23 01:47:54;;;;;;;28.63;13.07;;;;;;;19.87;nan;100420.13;5068549;28;20028;-73
2023/06/23 01:50:21;;;;;;;21.98;11.75;;;;;;;19.80;nan;100359.03;5064124;28;20020;-73
2023/06/23 01:52:49;;;;;;;25.50;13.18;;;;;;;19.82;nan;100429.00;5065673;28;20024;-73
2023/06/23 01:55:16;;;;;;;27.75;11.30;;;;;;;19.79;nan;100447.47;5048652;28;20024;-73
2023/06/23 01:57:44;;;;;;;34.33;12.40;;;;;;;19.68;nan;100450.28;5048935;28;20060;-74
2023/06/23 02:00:13;;;;;;;24.75;12.90;;;;;;;;;;5039884;28;20025;-74
2023/06/23 02:02:45;;;;;;;29.60;12.25;;;;;;;19.59;nan;100417.22;5065232;28;20724;-74
2023/06/23 02:05:13;;;;;;;23.00;12.68;;;;;;;19.62;nan;100387.25;5066398;28;20474;-74
2023/06/23 02:07:42;;;;;;;24.13;12.57;;;;;;;19.63;nan;100372.81;5065253;28;20036;-74
2023/06/23 02:10:08;;;;;;;39.17;13.23;;;;;;;19.63;nan;100444.94;5055136;28;20471;-74
2023/06/23 02:12:43;;;;;;;27.38;13.32;;;;;;;19.64;nan;100414.50;5067293;28;20040;-74
2023/06/23 02:15:10;;;;;;;31.80;12.80;;;;;;;19.63;nan;100450.28;5068362;28;20028;-73
2023/06/23 02:17:38;;;;;;;21.85;12.73;;;;;;;19.61;nan;100428.41;5065689;28;20027;-74
2023/06/23 02:20:13;;;;;;;26.15;12.57;;;;;;;19.63;nan;100444.16;5055259;28;20016;-73
2023/06/23 02:22:42;;;;;;;21.40;11.88;;;;;;;19.59;nan;100459.16;5071818;28;20043;-73
2023/06/23 02:25:10;;;;;;;29.83;13.18;;;;;;;19.63;nan;100465.53;5049493;28;20020;-73
2023/06/23 02:27:36;;;;;;;27.50;11.93;;;;;;;19.57;nan;100408.69;5053988;28;20032;-74
2023/06/23 02:30:03;;;;;;;27.63;12.48;;;;;;;19.60;nan;100424.13;5070741;28;20097;-74
2023/06/23 02:32:28;;;;;;;26.92;12.85;;;;;;;19.53;nan;100378.28;5071715;28;20076;-74
2023/06/23 02:34:54;;;;;;;24.20;11.80;;;;;;;19.51;nan;100453.38;5071975;28;20081;-73
2023/06/23 02:37:23;;;;;;;20.30;12.25;;;;;;;19.50;nan;100450.97;5053777;28;20024;-74
2023/06/23 02:40:09;;;;;;;23.88;12.05;;;;;;;19.32;nan;100434.59;5049971;28;20491;-74
2023/06/23 02:42:39;;;;;;;26.77;11.43;;;;;;;19.30;nan;100441.31;5064018;28;20175;-74
2023/06/23 02:45:12;;;;;;;20.85;11.98;;;;;;;19.27;nan;100444.50;5069570;28;20024;-73
2023/06/23 02:47:38;;;;;;;32.28;11.43;;;;;;;;;;5052115;28;20032;-73
2023/06/23 02:50:07;;;;;;;29.27;11.05;;;;;;;19.24;nan;100443.19;5051248;28;20031;-73
2023/06/23 02:52:36;;;;;;;;;;;;;;;19.20;nan;100457.38;5071393;28;20454;-73
2023/06/23 02:55:07;;;;;;;26.05;10.90;;;;;;;19.19;nan;100437.91;5070526;28;19963;-73
2023/06/23 02:57:34;;;;;;;29.50;11.63;;;;;;;19.13;nan;100405.16;5068695;28;20033;-74
2023/06/23 03:00:05;;;;;;;20.00;11.18;;;;;;;19.18;nan;100406.97;5050790;28;20786;-73
2023/06/23 03:02:32;;;;;;;23.63;11.13;;;;;;;19.16;nan;100435.03;5067970;28;20047;-73
2023/06/23 03:04:58;;;;;;;22.67;10.75;;;;;;;19.17;nan;100409.91;5090121;28;20046;-73
2023/06/23 03:07:24;;;;;;;23.63;11.75;;;;;;;;;;5087444;28;20486;-74
2023/06/23 03:09:52;;;;;;;23.15;10.88;;;;;;;19.12;nan;100435.56;5089687;28;20082;-73
2023/06/23 03:12:18;;;;;;;24.95;11.27;;;;;;;19.09;nan;100430.00;5092344;28;20028;-72
2023/06/23 03:14:45;;;;;;;27.73;12.00;;;;;;;19.12;nan;100458.81;5089207;28;20554;-75
2023/06/23 03:17:17;;;;;;;27.20;11.25;;;;;;;19.02;nan;100483.69;5089359;28;20031;-73
2023/06/23 03:19:45;;;;;;;27.58;11.40;;;;;;;;;;5092756;28;20033;-72
2023/06/23 03:22:14;;;;;;;21.65;11.77;;;;;;;19.05;nan;100442.31;5090647;28;20023;-72
2023/06/23 03:24:51;;;;;;;27.70;12.55;;;;;;;19.06;nan;100500.75;5092876;28;20020;-73
2023/06/23 03:27:21;;;;;;;24.05;11.80;;;;;;;19.06;nan;100436.69;5093996;28;20032;-73
2023/06/23 03:29:52;;;;;;;23.08;12.32;;;;;;;19.10;nan;100458.28;5092946;28;20034;-74
2023/06/23 03:32:33;;;;;;;24.92;12.75;;;;;;;19.08;nan;100436.41;5092543;28;20492;-73
2023/06/23 03:35:06;;;;;;;21.35;12.75;;;;;;;19.07;nan;100448.97;5093693;28;20031;-73
2023/06/23 03:37:35;;;;;;;28.30;13.10;;;;;;;19.03;nan;100431.91;5090291;28;20039;-73
2023/06/23 03:40:12;;;;;;;27.73;13.23;;;;;;;19.07;nan;100453.50;5092625;28;20066;-73
2023/06/23 03:42:40;;;;;;;22.10;12.80;;;;;;;;;;5094920;28;20036;-73
2023/06/23 03:45:07;;;;;;;28.60;12.45;;;;;;;19.08;nan;100497.78;5094019;28;20020;-73
2023/06/23 03:47:35;;;;;;;28.10;13.15;;;;;;;;;;5093155;28;20182;-74
2023/06/23 03:50:02;;;;;;;20.83;11.57;;;;;;;;;;5090700;28;20035;-73
2023/06/23 03:52:29;;;;;;;31.40;12.50;;;;;;;;;;5096825;28;20043;-73
2023/06/23 03:54:55;;;;;;;32.15;12.38;;;;;;;19.24;nan;100448.53;5093145;28;20054;-73
2023/06/23 03:57:25;;;;;;;30.58;11.93;;;;;;;19.26;nan;100457.06;5094739;28;20043;-73
2023/06/23 03:59:52;;;;;;;25.45;12.15;;;;;;;19.30;nan;100466.13;5089557;28;20024;-73
2023/06/23 04:02:20;;;;;;;25.10;11.98;;;;;;;19.34;nan;100451.09;5086918;28;20044;-73
2023/06/23 04:04:48;;;;;;;27.85;12.00;;;;;;;19.34;nan;100453.78;5071561;28;20037;-73
2023/06/23 04:07:14;;;;;;;28.90;11.48;;;;;;;19.37;nan;100465.78;5074298;28;20036;-73
2023/06/23 04:09:41;;;;;;;24.33;11.43;;;;;;;;;;5071753;28;20106;-73
2023/06/23 04:12:11;;;;;;;19.45;11.75;;;;;;;19.38;nan;100421.97;5075046;28;20056;-73
2023/06/23 04:14:39;;;;;;;22.73;12.35;;;;;;;19.42;nan;100455.06;5070218;28;20044;-73
2023/06/23 04:17:06;;;;;;;24.75;12.93;;;;;;;;;;5052603;28;20025;-73
2023/06/23 04:19:34;;;;;;;20.15;12.38;;;;;;;19.54;nan;100449.34;5074944;28;20036;-74
2023/06/23 04:22:02;;;;;;;23.77;12.93;;;;;;;19.59;nan;100417.22;5074668;28;20036;-74
2023/06/23 04:24:28;;;;;;;25.40;13.88;;;;;;;;;;5056114;28;20032;-74
2023/06/23 04:26:56;;;;;;;24.02;13.25;;;;;;;19.68;nan;100455.63;5071839;28;20020;-73
2023/06/23 04:29:24;;;;;;;21.80;13.82;;;;;;;19.74;nan;100462.47;5073403;28;20056;-73
2023/06/23 04:31:52;;;;;;;21.40;13.52;;;;;;;19.74;nan;100459.81;5068398;28;20009;-74
2023/06/23 04:34:18;;;;;;;24.17;14.30;;;;;;;19.84;nan;100431.38;5070567;28;20028;-73
2023/06/23 04:36:50;;;;;;;26.23;13.95;;;;;;;19.94;nan;100460.66;5063318;28;20019;-73
2023/06/23 04:39:27;;;;;;;27.75;14.60;;;;;;;19.94;nan;100417.88;5063014;28;20029;-73
2023/06/23 04:41:56;;;;;;;22.25;14.02;;;;;;;20.04;nan;100452.53;5063789;28;20016;-72
2023/06/23 04:44:26;;;;;;;20.95;13.85;;;;;;;20.05;nan;100456.78;5065464;28;20075;-73
2023/06/23 04:46:54;;;;;;;26.75;14.48;;;;;;;20.14;nan;100449.72;5066162;28;20115;-72
2023/06/23 04:49:22;;;;;;;22.20;13.60;;;;;;;20.12;nan;100451.09;5063586;28;20027;-72
2023/06/23 04:51:52;;;;;;;25.02;14.50;;;;;;;20.26;nan;100421.78;5064212;28;20024;-73
2023/06/23 04:54:26;;;;;;;26.15;14.55;;;;;;;20.31;nan;100493.91;5067570;28;20043;-73
2023/06/23 04:57:01;;;;;;;25.77;14.35;;;;;;;20.35;nan;100442.22;5048932;28;20041;-72
2023/06/23 04:59:30;;;;;;;21.58;15.18;;;;;;;20.48;nan;100458.63;5061954;28;20129;-72
2023/06/23 05:01:57;;;;;;;23.90;14.80;;;;;;;20.51;nan;100375.09;5061965;28;20122;-73
2023/06/23 05:04:23;;;;;;;25.75;16.20;;;;;;;20.60;nan;100475.84;5062400;28;20103;-73
2023/06/23 05:06:50;;;;;;;24.75;15.15;;;;;;;20.66;nan;100417.69;5047129;28;20945;-73
2023/06/23 05:09:17;;;;;;;23.42;14.63;;;;;;;20.77;nan;100402.28;5061938;28;20025;-73
2023/06/23 05:11:44;;;;;;;21.83;14.80;;;;;;;;;;5066582;28;20028;-72
2023/06/23 05:14:12;;;;;;;24.92;14.70;;;;;;;20.84;nan;100483.00;5062413;28;20021;-72
2023/06/23 05:16:40;;;;;;;23.15;15.68;;;;;;;20.94;nan;100479.38;5065551;28;20031;-72
2023/06/23 05:19:09;;;;;;;27.35;15.43;;;;;;;21.03;nan;100482.97;5060950;28;20036;-72
2023/06/23 05:21:35;;;;;;;21.75;15.18;;;;;;;21.21;nan;100494.72;5044691;28;20156;-73
2023/06/23 05:24:04;;;;;;;25.35;15.73;;;;;;;21.30;nan;100495.63;5061327;28;20033;-73
2023/06/23 05:26:33;;;;;;;21.55;14.65;;;;;;;21.35;nan;100492.84;5065720;28;20032;-73
2023/06/23 05:29:03;;;;;;;28.35;14.93;;;;;;;21.48;nan;100499.38;5042908;28;20098;-72
2023/06/23 05:31:30;;;;;;;24.58;15.60;;;;;;;21.47;nan;100480.91;5064056;28;20131;-71
2023/06/23 05:33:58;;;;;;;23.23;15.50;;;;;;;21.60;nan;100488.97;5060124;28;20058;-72
2023/06/23 05:36:25;;;;;;;24.10;15.68;;;;;;;21.69;nan;100490.94;5062634;28;20029;-71
2023/06/23 05:38:54;;;;;;;25.15;15.40;;;;;;;21.82;nan;100499.00;5041137;28;20496;-72
2023/06/23 05:41:19;;;;;;;;;;;;;;;21.97;nan;100492.53;5047596;28;20410;-72
2023/06/23 05:43:45;;;;;;;23.93;15.70;;;;;;;22.12;nan;100494.13;5045499;28;19927;-73
2023/06/23 05:46:13;;;;;;;22.20;15.23;;;;;;;22.20;nan;100481.91;5066816;28;20277;-73
2023/06/23 05:48:46;;;;;;;24.45;15.30;;;;;;;22.22;nan;100463.63;5064577;28;20028;-73
2023/06/23 05:51:16;;;;;;;19.80;15.60;;;;;;;22.41;nan;100476.91;5065821;28;20028;-72
2023/06/23 05:53:43;;;;;;;22.73;17.45;;;;;;;22.43;nan;100472.03;5046663;28;20083;-73
2023/06/23 05:56:25;;;;;;;23.42;16.63;;;;;;;22.46;nan;100472.25;5065551;28;20429;-73
2023/06/23 05:58:56;;;;;;;22.75;15.52;;;;;;;22.55;nan;100482.25;5055949;28;20028;-72
2023/06/23 06:01:23;;;;;;;23.10;16.25;;;;;;;22.63;nan;100490.38;5046683;28;20015;-73
2023/06/23 06:04:11;;;;;;;24.33;15.65;;;;;;;22.75;nan;100505.13;5062780;28;20040;-73
2023/06/23 06:06:38;;;;;;;29.35;15.68;;;;;;;22.75;nan;100505.13;5066485;28;20483;-72
2023/06/23 06:09:07;;;;;;;27.75;15.98;;;;;;;22.86;nan;100501.91;5065371;28;20040;-72
2023/06/23 06:11:35;;;;;;;24.50;15.93;;;;;;;22.89;nan;100497.81;5065223;28;20035;-72
2023/06/23 06:14:02;;;;;;;23.83;16.02;;;;;;;22.98;nan;100487.97;5064031;28;20032;-72
2023/06/23 06:16:28;;;;;;;24.10;16.63;;;;;;;23.16;nan;100488.88;5063920;28;20048;-72
2023/06/23 06:18:55;;;;;;;22.65;15.95;;;;;;;23.16;nan;100477.34;5044124;28;20067;-72
2023/06/23 06:21:23;;;;;;;21.85;15.60;;;;;;;23.38;nan;100496.09;5065558;28;20102;-72
2023/06/23 06:23:50;;;;;;;27.58;16.58;;;;;;;23.46;nan;100500.72;5044907;28;20064;-72
2023/06/23 06:26:18;;;;;;;29.60;19.08;;;;;;;23.58;nan;100494.75;5065114;28;20021;-72
2023/06/23 06:28:46;;;;;;;31.10;18.00;;;;;;;23.77;nan;100495.34;5065202;28;20119;-73
2023/06/23 06:31:12;;;;;;;27.83;18.70;;;;;;;23.95;nan;100498.91;5064157;28;20024;-72
2023/06/23 06:33:41;;;;;;;27.55;16.75;;;;;;;23.97;nan;100490.53;5064885;28;20032;-73
2023/06/23 06:36:08;;;;;;;23.95;17.52;;;;;;;24.02;nan;100486.91;5065408;28;20012;-72
2023/06/23 06:38:37;;;;;;;23.48;16.92;;;;;;;24.13;nan;100493.53;5064025;28;20038;-72
2023/06/23 06:41:06;;;;;;;23.40;16.37;;;;;;;24.25;nan;100499.09;5063624;28;20467;-73
2023/06/23 06:43:33;;;;;;;22.85;16.88;;;;;;;24.23;nan;100487.06;5044882;28;20023;-73
2023/06/23 06:46:04;;;;;;;22.92;17.15;;;;;;;24.43;nan;100494.56;5065606;28;20036;-73
2023/06/23 06:48:32;;;;;;;27.50;17.40;;;;;;;24.44;nan;100498.81;5063360;28;20028;-73
2023/06/23 06:50:59;;;;;;;20.88;16.35;;;;;;;24.56;nan;100507.06;5065285;28;20048;-73
2023/06/23 06:53:26;;;;;;;25.70;16.30;;;;;;;24.57;nan;100502.50;5064350;28;20033;-73
2023/06/23 06:55:52;;;;;;;23.80;16.70;;;;;;;24.65;nan;100503.63;5064550;28;20040;-73
2023/06/23 06:58:18;;;;;;;27.48;16.70;;;;;;;24.73;nan;100506.28;5064603;28;20087;-73
2023/06/23 07:00:44;;;;;;;21.02;17.00;;;;;;;24.74;nan;100491.72;5041861;28;20924;-74
2023/06/23 07:03:13;;;;;;;23.13;16.92;;;;;;;24.91;nan;100492.81;5064208;28;20044;-74
2023/06/23 07:05:39;;;;;;;;;;;;;;;25.16;nan;100502.75;5049786;28;20040;-73
2023/06/23 07:08:05;;;;;;;18.90;16.75;;;;;;;25.22;nan;100498.81;5069610;28;20022;-73
2023/06/23 07:10:32;;;;;;;25.38;17.20;;;;;;;25.33;nan;100485.78;5068837;28;20032;-72
2023/06/23 07:12:58;;;;;;;22.20;17.50;;;;;;;25.40;nan;100479.88;5070545;28;20082;-77
2023/06/23 07:15:23;;;;;;;22.58;17.40;;;;;;;25.60;nan;100479.19;5067495;28;20036;-73
2023/06/23 07:17:49;;;;;;;25.15;16.52;;;;;;;25.64;nan;100485.53;5050806;28;20164;-72
2023/06/23 07:20:14;;;;;;;22.48;17.40;;;;;;;25.68;nan;100474.84;5067828;28;20055;-72
2023/06/23 07:22:40;;;;;;;25.90;18.20;;;;;;;25.89;nan;100488.44;5051143;28;20517;-72
2023/06/23 07:25:05;;;;;;;25.80;18.45;;;;;;;25.88;nan;100486.84;5066473;28;20027;-73
2023/06/23 07:27:31;;;;;;;23.95;18.35;;;;;;;25.91;nan;100491.59;5070351;28;20527;-74
2023/06/23 07:29:58;;;;;;;23.80;19.05;;;;;;;26.19;nan;100496.50;5067886;28;20027;-73
2023/06/23 07:32:24;;;;;;;21.13;18.92;;;;;;;26.14;nan;100485.91;5070851;28;20020;-74
2023/06/23 07:34:49;;;;;;;23.13;18.23;;;;;;;26.13;nan;100487.81;5069947;28;20378;-73
2023/06/23 07:37:14;;;;;;;23.02;17.77;;;;;;;26.21;nan;100495.06;5071018;28;20090;-74
2023/06/23 07:39:40;;;;;;;26.97;18.90;;;;;;;26.25;nan;100492.50;5066927;28;20104;-74
2023/06/23 07:42:05;;;;;;;20.13;17.80;;;;;;;26.41;nan;100495.38;5068708;28;20269;-74
2023/06/23 07:44:31;;;;;;;21.63;18.10;;;;;;;26.45;nan;100486.28;5067143;28;20041;-74
2023/06/23 07:46:58;;;;;;;26.25;19.50;;;;;;;26.56;nan;100484.03;5068128;28;20345;-73
2023/06/23 07:49:23;;;;;;;22.13;17.90;;;;;;;26.68;nan;100499.50;5069375;28;20016;-73
2023/06/23 07:51:49;;;;;;;25.63;18.45;;;;;;;26.71;nan;100498.84;5068298;28;20028;-74
2023/06/23 07:54:14;;;;;;;20.55;18.35;;;;;;;26.72;nan;100489.59;5066237;28;20048;-74
2023/06/23 07:56:39;;;;;;;25.83;17.77;;;;;;;26.75;nan;100490.88;5069549;28;20107;-73
2023/06/23 07:59:05;;;;;;;22.23;18.27;;;;;;;26.86;nan;100478.50;5048150;28;20668;-73
2023/06/23 08:01:30;;;;;;;21.88;18.73;;;;;;;27.12;nan;100495.25;5051682;28;20036;-73
2023/06/23 08:03:56;;;;;;;24.92;18.35;;;;;;;27.10;nan;100480.50;5082203;28;20111;-72
2023/06/23 08:06:23;;;;;;;25.92;18.50;;;;;;;27.24;nan;100497.22;5087216;28;20085;-73
2023/06/23 08:08:50;;;;;;;25.17;18.38;;;;;;;27.25;nan;100493.41;5089895;28;20035;-74
2023/06/23 08:11:18;;;;;;;19.85;17.75;;;;;;;27.41;nan;100495.44;5086894;28;20107;-77
2023/06/23 08:13:44;;;;;;;22.13;17.73;;;;;;;27.48;nan;100492.97;5085393;28;20032;-71
2023/06/23 08:16:10;;;;;;;20.75;18.05;;;;;;;27.51;nan;100486.88;5086551;28;20027;-71
2023/06/23 08:18:38;;;;;;;21.65;16.90;;;;;;;27.53;nan;100485.41;5085672;28;20034;-71
2023/06/23 08:21:03;;;;;;;22.27;17.27;;;;;;;27.54;nan;100478.13;5085729;28;20028;-72
2023/06/23 08:23:29;;;;;;;20.58;17.63;;;;;;;27.56;nan;100475.88;5083921;28;20389;-72
2023/06/23 08:25:54;;;;;;;23.98;17.65;;;;;;;27.66;nan;100472.72;5086459;28;20047;-72
2023/06/23 08:28:20;;;;;;;19.20;17.00;;;;;;;27.70;nan;100470.91;5086079;28;20032;-71
2023/06/23 08:30:45;;;;;;;21.30;16.83;;;;;;;27.81;nan;100479.34;5088014;28;20035;-73
2023/06/23 08:33:11;;;;;;;23.92;17.52;;;;;;;27.83;nan;100481.75;5084281;28;20015;-72
2023/06/23 08:35:36;;;;;;;24.95;17.80;;;;;;;27.84;nan;100477.91;5085962;28;20035;-72
2023/06/23 08:38:01;;;;;;;22.30;16.02;;;;;;;27.88;nan;100470.69;5083889;28;20064;-72
2023/06/23 08:40:29;;;;;;;20.02;15.45;;;;;;;28.00;nan;100468.75;5082926;28;20665;-72
2023/06/23 08:42:54;;;;;;;20.02;15.15;;;;;;;28.04;nan;100460.75;5085347;28;20055;-72
2023/06/23 08:45:22;;;;;;;16.92;15.10;;;;;;;28.20;nan;100464.28;5082361;28;20051;-72
2023/06/23 08:47:51;;;;;;;16.70;14.83;;;;;;;28.29;nan;100461.47;5084556;28;20280;-72
2023/06/23 08:50:17;;;;;;;17.00;13.93;;;;;;;28.45;nan;100469.66;5080737;28;20068;-71
2023/06/23 08:52:43;;;;;;;17.48;13.75;;;;;;;28.57;nan;100455.31;5085891;28;20062;-71
2023/06/23 08:55:10;;;;;;;22.10;13.90;;;;;;;28.57;nan;100447.97;5084401;28;20469;-69
2023/06/23 08:57:38;;;;;;;15.10;13.15;;;;;;;28.70;nan;100458.75;5087297;28;20054;-69
2023/06/23 09:00:05;;;;;;;14.05;12.48;;;;;;;28.70;nan;100456.81;5085184;28;20027;-70
2023/06/23 09:02:30;;;;;;;15.55;13.30;;;;;;;28.82;nan;100469.53;5080082;28;20047;-69
2023/06/23 09:04:56;;;;;;;16.75;12.27;;;;;;;28.82;nan;100456.75;5062763;28;20028;-70
2023/06/23 09:07:21;;;;;;;19.15;12.75;;;;;;;28.88;nan;100456.50;5066334;28;20093;-70
2023/06/23 09:09:47;;;;;;;15.80;12.50;;;;;;;28.97;nan;100454.41;5065916;28;20066;-71
2023/06/23 09:12:16;;;;;;;13.95;12.43;;;;;;;29.04;nan;100447.28;5066322;28;20033;-70
2023/06/23 09:14:43;;;;;;;14.48;12.15;;;;;;;29.20;nan;100454.66;5066307;28;20029;-71
2023/06/23 09:17:09;;;;;;;16.02;12.02;;;;;;;29.35;nan;100451.13;5064630;28;20481;-70
2023/06/23 09:19:37;;;;;;;22.42;13.70;;;;;;;29.42;nan;100451.31;5065795;28;20020;-70
2023/06/23 09:22:03;;;;;;;18.48;14.15;;;;;;;29.54;nan;100452.34;5063666;28;20104;-71
2023/06/23 09:24:39;;;;;;;14.80;12.10;;;;;;;29.63;nan;100458.38;5065636;28;20227;-70
2023/06/23 09:27:04;;;;;;;15.05;11.70;;;;;;;29.66;nan;100444.09;5063671;28;20048;-71
2023/06/23 09:29:30;;;;;;;15.50;12.48;;;;;;;29.77;nan;100449.81;5066042;28;20067;-71
2023/06/23 09:31:56;;;;;;;15.27;12.10;;;;;;;29.79;nan;100442.88;5065129;28;20021;-71
2023/06/23 09:34:26;;;;;;;15.25;11.30;;;;;;;29.90;nan;100452.03;5046931;28;20203;-71
2023/06/23 09:36:53;;;;;;;16.40;11.15;;;;;;;29.95;nan;100450.19;5063827;28;20382;-72
2023/06/23 09:39:19;;;;;;;15.80;11.27;;;;;;;29.94;nan;100443.97;5065778;28;20128;-71
2023/06/23 09:41:58;;;;;;;15.57;11.70;;;;;;;30.02;nan;100444.91;5064772;28;20063;-71
2023/06/23 09:44:33;;;;;;;;;;;;;;;30.15;nan;100453.72;5064916;28;20475;-71
2023/06/23 09:47:00;;;;;;;16.33;11.48;;;;;;;30.19;nan;100452.63;5063593;28;19954;-71
2023/06/23 09:49:26;;;;;;;17.88;11.90;;;;;;;30.19;nan;100444.47;5066103;28;20043;-67
2023/06/23 09:51:51;;;;;;;20.00;11.35;;;;;;;30.29;nan;100456.78;5062504;28;20522;-69
2023/06/23 09:54:31;;;;;;;13.90;10.80;;;;;;;30.38;nan;100454.59;5064568;28;20016;-69
2023/06/23 09:57:15;;;;;;;13.43;10.70;;;;;;;30.47;nan;100451.69;5065026;28;20762;-71
2023/06/23 09:59:42;;;;;;;14.20;11.13;;;;;;;30.53;nan;100442.09;5064289;28;20477;-71
2023/06/23 10:02:09;;;;;;;14.23;11.50;;;;;;;30.62;nan;100448.06;5063140;28;20028;-71
2023/06/23 10:04:36;;;;;;;15.30;11.13;;;;;;;30.66;nan;100445.44;5064319;28;20698;-72
2023/06/23 10:07:20;;;;;;;14.55;10.68;;;;;;;30.69;nan;100448.22;5047534;28;20062;-71
2023/06/23 10:09:57;;;;;;;16.35;10.45;;;;;;;30.76;nan;100438.63;5044710;28;20589;-71
2023/06/23 10:12:28;;;;;;;15.63;10.40;;;;;;;30.80;nan;100447.63;5066180;28;20048;-71
2023/06/23 10:14:55;;;;;;;17.65;9.75;;;;;;;30.84;nan;100443.06;5064947;28;20031;-70
2023/06/23 10:17:21;;;;;;;12.43;9.20;;;;;;;30.83;nan;100439.56;5066493;28;20028;-71
2023/06/23 10:19:50;;;;;;;14.18;9.85;;;;;;;30.88;nan;100438.47;5048722;28;20025;-71
2023/06/23 10:22:18;;;;;;;13.40;9.65;;;;;;;30.88;nan;100433.81;5061706;28;20021;-72
2023/06/23 10:24:46;;;;;;;18.98;9.93;;;;;;;30.94;nan;100439.75;5047660;28;20462;-72
2023/06/23 10:27:16;;;;;;;14.27;9.88;;;;;;;30.89;nan;100419.09;5046429;28;20032;-71
2023/06/23 10:29:47;;;;;;;15.68;9.52;;;;;;;30.98;nan;100424.28;5066101;28;20028;-72
2023/06/23 10:32:15;;;;;;;13.82;8.90;;;;;;;31.10;nan;100429.53;5062543;28;20514;-71
2023/06/23 10:34:42;;;;;;;13.55;9.68;;;;;;;31.13;nan;100419.88;5065268;28;20432;-70
2023/06/23 10:37:14;;;;;;;12.30;9.00;;;;;;;31.18;nan;100421.50;5047553;28;20060;-70
2023/06/23 10:39:43;;;;;;;14.95;9.63;;;;;;;31.22;nan;100408.72;5050122;28;20024;-70
2023/06/23 10:42:11;;;;;;;13.35;9.80;;;;;;;31.26;nan;100412.28;5067539;28;20040;-70
2023/06/23 10:44:39;;;;;;;12.35;9.00;;;;;;;31.33;nan;100420.56;5049421;28;20394;-72
2023/06/23 10:47:05;;;;;;;15.53;9.97;;;;;;;31.34;nan;100412.03;5069904;28;20020;-72
2023/06/23 10:49:30;;;;;;;16.38;9.05;;;;;;;31.29;nan;100397.94;5068512;28;20029;-69
2023/06/23 10:51:57;;;;;;;14.85;8.52;;;;;;;31.40;nan;100420.69;5068228;28;20624;-69
2023/06/23 10:54:27;;;;;;;13.48;8.73;;;;;;;31.40;nan;100415.25;5066932;28;20111;-72
2023/06/23 10:56:54;;;;;;;13.50;9.00;;;;;;;31.41;nan;100410.59;5067183;28;20016;-71
2023/06/23 10:59:27;;;;;;;11.98;8.88;;;;;;;31.50;nan;100401.00;5068359;28;20070;-71
2023/06/23 11:02:02;;;;;;;41.47;10.68;;;;;;;31.60;nan;100402.31;5067820;28;20055;-70
2023/06/23 11:04:30;;;;;;;12.18;8.52;;;;;;;31.64;nan;100395.00;5081446;28;20055;-67
2023/06/23 11:07:12;;;;;;;11.65;8.70;;;;;;;31.76;nan;100404.88;5086769;28;20067;-69
2023/06/23 11:09:58;;;;;;;13.82;8.07;;;;;;;31.85;nan;100399.16;5083078;28;20032;-68
2023/06/23 11:12:27;;;;;;;35.33;30.10;;;;;;;31.90;nan;100407.78;5079937;28;20032;-71
2023/06/23 11:14:52;;;;;;;26.45;18.35;;;;;;;31.89;nan;100395.31;5087919;28;20024;-70
2023/06/23 11:17:20;;;;;;;10.43;9.00;;;;;;;31.96;nan;100395.44;5087063;28;20032;-67
2023/06/23 11:19:50;;;;;;;13.00;8.90;;;;;;;32.03;nan;100402.13;5089663;28;20043;-70
2023/06/23 11:22:21;;;;;;;13.02;8.10;;;;;;;31.97;nan;100386.13;5084389;28;20059;-70
2023/06/23 11:24:53;;;;;;;11.95;8.55;;;;;;;32.08;nan;100397.13;5103626;28;20035;-70
2023/06/23 11:27:19;;;;;;;19.42;8.43;;;;;;;32.03;nan;100383.06;5087284;28;20124;-72
2023/06/23 11:30:16;;;;;;;12.55;7.90;;;;;;;32.07;nan;100390.13;5087970;28;20091;-71
2023/06/23 11:32:42;;;;;;;10.13;7.88;;;;;;;32.05;nan;100375.31;5079651;28;20024;-71
2023/06/23 11:35:09;;;;;;;12.18;7.97;;;;;;;32.10;nan;100375.75;5085014;28;20545;-72
2023/06/23 11:37:35;;;;;;;14.77;7.60;;;;;;;32.05;nan;100372.56;5087206;28;20028;-71
2023/06/23 11:40:01;;;;;;;13.43;7.95;;;;;;;32.06;nan;100374.94;5086509;28;20150;-71